createdAt,value
2022-11-19T00:00:40.580Z,9.13
2022-11-19T00:03:06.897Z,9.20
2022-11-19T00:05:38.540Z,9.23
2022-11-19T00:08:04.762Z,9.57
2022-11-19T00:10:33.307Z,9.63
2022-11-19T00:12:59.146Z,9.47
2022-11-19T00:15:25.921Z,8.80
2022-11-19T00:17:52.052Z,8.77
2022-11-19T00:20:18.207Z,8.50
2022-11-19T00:22:44.612Z,8.10
2022-11-19T00:25:11.606Z,8.10
2022-11-19T00:27:37.744Z,8.10
2022-11-19T00:30:10.945Z,8.70
2022-11-19T00:32:46.973Z,8.13
2022-11-19T00:35:13.440Z,8.47
2022-11-19T00:37:39.868Z,9.50
2022-11-19T00:40:08.071Z,9.10
2022-11-19T00:42:34.360Z,9.83
2022-11-19T00:45:00.910Z,8.67
2022-11-19T00:47:27.674Z,8.70
2022-11-19T00:49:54.462Z,9.93
2022-11-19T00:52:20.577Z,9.03
2022-11-19T00:54:46.730Z,8.83
2022-11-19T00:57:13.126Z,9.23
2022-11-19T00:59:39.288Z,9.60
2022-11-19T01:02:05.455Z,10.23
2022-11-19T01:04:31.653Z,9.20
2022-11-19T01:06:58.495Z,9.33
2022-11-19T01:09:24.660Z,8.73
2022-11-19T01:11:50.763Z,9.17
2022-11-19T01:14:16.984Z,9.23
2022-11-19T01:16:43.136Z,8.70
2022-11-19T01:19:10.517Z,8.87
2022-11-19T01:21:37.324Z,8.53
2022-11-19T01:24:05.338Z,8.17
2022-11-19T01:26:31.949Z,8.30
2022-11-19T01:28:58.273Z,8.23
2022-11-19T01:31:26.710Z,7.67
2022-11-19T01:33:53.170Z,8.43
2022-11-19T01:36:20.748Z,8.43
2022-11-19T01:38:50.015Z,8.33
2022-11-19T01:41:17.249Z,9.20
2022-11-19T01:43:46.207Z,8.03
2022-11-19T01:46:13.605Z,8.40
2022-11-19T01:48:43.911Z,9.00
2022-11-19T01:51:13.090Z,8.83
2022-11-19T01:53:39.718Z,8.07
2022-11-19T01:56:07.850Z,7.97
2022-11-19T01:58:36.931Z,8.50
2022-11-19T02:01:03.498Z,8.10
2022-11-19T02:03:30.591Z,8.20
2022-11-19T02:05:57.932Z,7.23
2022-11-19T02:08:36.931Z,7.67
2022-11-19T02:11:16.380Z,7.83
2022-11-19T02:13:45.930Z,7.57
2022-11-19T02:16:19.647Z,6.77
2022-11-19T02:18:52.716Z,7.37
2022-11-19T02:21:29.168Z,7.60
2022-11-19T02:24:14.726Z,7.17
2022-11-19T02:27:11.837Z,6.73
2022-11-19T02:30:03.946Z,6.57
2022-11-19T02:32:32.902Z,6.37
2022-11-19T02:35:04.422Z,6.30
2022-11-19T02:37:37.856Z,6.23
2022-11-19T02:40:07.376Z,6.17
2022-11-19T02:42:36.651Z,7.30
2022-11-19T02:45:08.042Z,7.10
2022-11-19T02:47:36.869Z,5.53
2022-11-19T02:50:05.598Z,6.20
2022-11-19T02:52:32.087Z,6.23
2022-11-19T02:54:58.238Z,6.40
2022-11-19T02:57:24.373Z,6.60
2022-11-19T03:00:12.867Z,6.80
2022-11-19T03:03:00.607Z,6.63
2022-11-19T03:05:30.910Z,6.83
2022-11-19T03:07:57.082Z,6.60
2022-11-19T03:10:26.182Z,6.63
2022-11-19T03:12:54.018Z,7.87
2022-11-19T03:15:45.104Z,7.43
2022-11-19T03:18:14.261Z,7.23
2022-11-19T03:20:41.728Z,7.53
2022-11-19T03:23:11.114Z,8.13
2022-11-19T03:25:40.221Z,8.60
2022-11-19T03:28:10.990Z,8.50
2022-11-19T03:30:38.405Z,8.73
2022-11-19T03:33:06.832Z,9.30
2022-11-19T03:35:37.785Z,9.87
2022-11-19T03:38:06.633Z,9.57
2022-11-19T03:40:33.565Z,10.47
2022-11-19T03:43:02.804Z,9.57
2022-11-19T03:45:32.282Z,9.63
2022-11-19T03:48:00.745Z,10.43
2022-11-19T03:50:30.587Z,10.73
2022-11-19T03:53:02.773Z,9.83
2022-11-19T03:55:33.580Z,11.00
2022-11-19T03:58:02.355Z,10.80
2022-11-19T04:00:28.537Z,11.43
2022-11-19T04:02:54.797Z,10.87
2022-11-19T04:05:20.955Z,11.33
2022-11-19T04:07:47.140Z,13.13
2022-11-19T04:10:14.754Z,11.60
2022-11-19T04:12:40.908Z,11.97
2022-11-19T04:15:09.594Z,11.87
2022-11-19T04:17:36.702Z,12.60
2022-11-19T04:20:03.239Z,11.67
2022-11-19T04:22:29.406Z,13.37
2022-11-19T04:24:55.529Z,13.67
2022-11-19T04:27:22.367Z,13.50
2022-11-19T04:29:48.505Z,13.97
2022-11-19T04:32:14.632Z,13.67
2022-11-19T04:34:40.806Z,13.77
2022-11-19T04:37:06.938Z,15.57
2022-11-19T04:39:33.219Z,14.20
2022-11-19T04:41:59.514Z,14.00
2022-11-19T04:44:26.304Z,13.83
2022-11-19T04:46:52.449Z,16.07
2022-11-19T04:49:18.829Z,15.00
2022-11-19T04:51:45.113Z,14.70
2022-11-19T04:54:12.379Z,15.30
2022-11-19T04:56:38.823Z,14.73
2022-11-19T04:59:05.165Z,15.43
2022-11-19T05:01:31.986Z,14.90
2022-11-19T05:03:58.237Z,16.00
2022-11-19T05:06:24.428Z,16.90
2022-11-19T05:08:50.556Z,15.77
2022-11-19T05:11:16.769Z,16.57
2022-11-19T05:13:42.919Z,16.60
2022-11-19T05:16:09.102Z,16.43
2022-11-19T05:18:35.850Z,16.77
2022-11-19T05:21:02.008Z,17.43
2022-11-19T05:23:28.135Z,17.40
2022-11-19T05:25:54.279Z,17.50
2022-11-19T05:28:32.794Z,18.43
2022-11-19T05:31:04.845Z,18.53
2022-11-19T05:33:33.944Z,17.80
2022-11-19T05:36:01.431Z,17.33
2022-11-19T05:38:27.590Z,17.77
2022-11-19T05:40:53.715Z,17.63
2022-11-19T05:43:19.865Z,16.67
2022-11-19T05:45:46.049Z,17.00
2022-11-19T05:48:12.152Z,17.43
2022-11-19T05:50:40.109Z,16.57
2022-11-19T05:53:06.909Z,16.97
2022-11-19T05:55:33.067Z,16.80
2022-11-19T05:57:59.230Z,16.73
2022-11-19T06:00:25.419Z,17.50
2022-11-19T06:02:51.720Z,17.97
2022-11-19T06:05:17.914Z,18.37
2022-11-19T06:07:44.120Z,16.67
2022-11-19T06:10:11.262Z,18.30
2022-11-19T06:12:40.218Z,17.73
2022-11-19T06:15:10.677Z,17.83
2022-11-19T06:17:37.026Z,17.50
2022-11-19T06:20:03.746Z,18.97
2022-11-19T06:22:30.030Z,18.47
2022-11-19T06:24:56.231Z,17.90
2022-11-19T06:27:23.070Z,17.67
2022-11-19T06:29:53.534Z,18.33
2022-11-19T06:32:22.711Z,17.23
2022-11-19T06:34:48.939Z,18.27
2022-11-19T06:37:15.154Z,17.60
2022-11-19T06:39:42.102Z,18.07
2022-11-19T06:42:26.686Z,17.27
2022-11-19T06:44:53.583Z,16.50
2022-11-19T06:47:19.764Z,16.37
2022-11-19T06:49:45.918Z,17.43
2022-11-19T06:52:12.043Z,18.27
2022-11-19T06:54:42.879Z,16.13
2022-11-19T06:57:09.447Z,16.63
2022-11-19T06:59:35.686Z,16.70
2022-11-19T07:02:02.625Z,16.83
2022-11-19T07:04:28.912Z,17.83
2022-11-19T07:06:55.126Z,17.17
2022-11-19T07:09:21.641Z,16.77
2022-11-19T07:11:47.972Z,17.60
2022-11-19T07:14:14.257Z,18.27
2022-11-19T07:16:40.465Z,18.27
2022-11-19T07:19:08.168Z,18.20
2022-11-19T07:21:34.908Z,19.10
2022-11-19T07:24:02.806Z,17.67
2022-11-19T07:26:30.362Z,18.67
2022-11-19T07:28:59.455Z,19.13
2022-11-19T07:31:29.571Z,18.87
2022-11-19T07:33:55.776Z,19.13
2022-11-19T07:36:22.712Z,18.40
2022-11-19T07:38:50.123Z,19.40
2022-11-19T07:41:34.375Z,20.47
2022-11-19T07:44:00.579Z,19.40
2022-11-19T07:46:26.747Z,20.13
2022-11-19T07:48:53.767Z,20.57
2022-11-19T07:51:20.291Z,19.73
2022-11-19T07:53:47.053Z,19.67
2022-11-19T07:56:13.187Z,19.43
2022-11-19T07:58:39.370Z,20.50
2022-11-19T08:01:08.919Z,20.83
2022-11-19T08:03:35.093Z,19.57
2022-11-19T08:06:02.492Z,20.80
2022-11-19T08:08:28.701Z,19.90
2022-11-19T08:10:55.440Z,20.70
2022-11-19T08:13:21.558Z,20.53
2022-11-19T08:15:47.735Z,21.37
2022-11-19T08:18:14.905Z,19.83
2022-11-19T08:20:41.477Z,20.03
2022-11-19T08:23:07.851Z,20.70
2022-11-19T08:25:36.234Z,21.23
2022-11-19T08:28:03.816Z,21.20
2022-11-19T08:30:30.214Z,19.57
2022-11-19T08:32:56.401Z,20.77
2022-11-19T08:35:22.830Z,22.77
2022-11-19T08:37:50.550Z,21.07
2022-11-19T08:40:17.306Z,21.57
2022-11-19T08:43:01.782Z,21.37
2022-11-19T08:45:30.838Z,20.50
2022-11-19T08:47:57.718Z,20.40
2022-11-19T08:50:24.987Z,20.13
2022-11-19T08:52:55.685Z,18.67
2022-11-19T08:55:21.975Z,18.33
2022-11-19T08:57:48.145Z,19.77
2022-11-19T09:00:15.540Z,19.73
2022-11-19T09:02:49.700Z,19.87
2022-11-19T09:05:15.965Z,21.53
2022-11-19T09:07:42.161Z,20.47
2022-11-19T09:10:08.994Z,19.80
2022-11-19T09:12:35.461Z,20.03
2022-11-19T09:15:01.602Z,19.77
2022-11-19T09:17:27.746Z,18.90
2022-11-19T09:19:54.517Z,20.23
2022-11-19T09:22:20.896Z,20.00
2022-11-19T09:24:47.223Z,20.70
2022-11-19T09:27:13.675Z,19.80
2022-11-19T09:29:39.920Z,19.57
2022-11-19T09:32:06.160Z,17.83
2022-11-19T09:34:34.294Z,17.87
2022-11-19T09:37:01.091Z,17.70
2022-11-19T09:39:27.216Z,19.40
2022-11-19T09:41:57.033Z,18.83
2022-11-19T09:44:50.481Z,17.27
2022-11-19T09:47:22.818Z,18.20
2022-11-19T09:49:52.105Z,16.63
2022-11-19T09:52:21.139Z,16.97
2022-11-19T09:54:49.325Z,16.93
2022-11-19T09:57:20.847Z,16.43
2022-11-19T09:59:47.626Z,17.00
2022-11-19T10:02:17.589Z,16.53
2022-11-19T10:04:44.635Z,16.87
2022-11-19T10:07:14.249Z,15.30
2022-11-19T10:09:49.010Z,16.97
2022-11-19T10:12:26.072Z,16.10
2022-11-19T10:15:14.688Z,16.60
2022-11-19T10:17:49.727Z,16.87
2022-11-19T10:20:26.854Z,18.63
2022-11-19T10:22:57.681Z,16.43
2022-11-19T10:25:28.103Z,15.97
2022-11-19T10:28:01.102Z,16.03
2022-11-19T10:30:30.080Z,16.17
2022-11-19T10:32:59.080Z,16.07
2022-11-19T10:35:27.803Z,17.10
2022-11-19T10:37:56.440Z,16.53
2022-11-19T10:40:24.741Z,17.40
2022-11-19T10:42:53.263Z,17.30
2022-11-19T10:45:22.843Z,16.57
2022-11-19T10:47:51.571Z,16.67
2022-11-19T10:50:18.713Z,16.43
2022-11-19T10:52:47.597Z,16.40
2022-11-19T10:55:18.612Z,15.20
2022-11-19T10:57:46.139Z,16.03
2022-11-19T11:00:13.452Z,17.17
2022-11-19T11:02:43.902Z,16.80
2022-11-19T11:05:11.605Z,16.90
2022-11-19T11:07:52.695Z,17.20
2022-11-19T11:10:35.058Z,18.57
2022-11-19T11:13:33.779Z,17.73
2022-11-19T11:16:05.222Z,17.63
2022-11-19T11:18:31.496Z,17.27
2022-11-19T11:20:58.460Z,16.70
2022-11-19T11:23:25.749Z,16.90
2022-11-19T11:25:55.037Z,16.63
2022-11-19T11:28:22.893Z,16.23
2022-11-19T11:30:52.841Z,16.87
2022-11-19T11:33:28.052Z,16.50
2022-11-19T11:35:56.104Z,15.30
2022-11-19T11:38:24.155Z,16.50
2022-11-19T11:41:30.036Z,15.77
2022-11-19T11:44:00.546Z,15.20
2022-11-19T11:46:37.049Z,14.97
2022-11-19T11:49:11.256Z,15.07
2022-11-19T11:51:39.168Z,16.63
2022-11-19T11:54:15.115Z,15.67
2022-11-19T11:56:44.438Z,16.00
2022-11-19T11:59:23.100Z,16.27
2022-11-19T12:01:56.329Z,16.77
2022-11-19T12:04:23.444Z,16.10
2022-11-19T12:06:59.681Z,16.03
2022-11-19T12:09:28.331Z,17.03
2022-11-19T12:11:57.764Z,16.17
2022-11-19T12:14:28.058Z,14.60
2022-11-19T12:17:19.651Z,15.87
2022-11-19T12:19:59.141Z,14.77
2022-11-19T12:22:42.248Z,15.43
2022-11-19T12:25:20.141Z,14.60
2022-11-19T12:27:54.163Z,14.30
2022-11-19T12:30:22.623Z,14.87
2022-11-19T12:33:13.427Z,14.63
2022-11-19T12:35:50.663Z,14.57
2022-11-19T12:38:34.097Z,14.43
2022-11-19T12:41:09.766Z,14.60
2022-11-19T12:44:00.351Z,14.90
2022-11-19T12:46:43.874Z,12.77
2022-11-19T12:49:38.953Z,14.37
2022-11-19T12:52:18.573Z,13.97
2022-11-19T12:54:51.993Z,13.33
2022-11-19T12:57:30.954Z,13.87
2022-11-19T13:00:08.503Z,14.47
2022-11-19T13:02:40.476Z,14.10
2022-11-19T13:05:11.979Z,14.23
2022-11-19T13:07:42.820Z,14.77
2022-11-19T13:10:15.052Z,15.00
2022-11-19T13:12:43.245Z,14.20
2022-11-19T13:15:15.207Z,14.50
2022-11-19T13:17:44.159Z,14.33
2022-11-19T13:20:14.876Z,13.77
2022-11-19T13:22:43.698Z,13.97
2022-11-19T13:25:17.454Z,14.60
2022-11-19T13:27:44.674Z,15.03
2022-11-19T13:30:16.951Z,14.37
2022-11-19T13:32:50.506Z,14.33
2022-11-19T13:35:20.532Z,13.47
2022-11-19T13:37:56.856Z,13.60
2022-11-19T13:40:28.172Z,12.70
2022-11-19T13:46:05.881Z,12.20
2022-11-19T13:48:34.087Z,13.13
2022-11-19T13:51:02.900Z,12.70
2022-11-19T13:53:33.619Z,13.60
2022-11-19T13:56:00.302Z,12.80
2022-11-19T13:58:31.882Z,12.43
2022-11-19T14:01:13.026Z,12.50
2022-11-19T14:03:52.626Z,12.47
2022-11-19T14:06:36.885Z,12.50
2022-11-19T14:09:16.661Z,12.13
2022-11-19T14:12:14.623Z,10.97
2022-11-19T14:15:12.829Z,12.97
2022-11-19T14:18:02.236Z,11.73
2022-11-19T14:20:50.963Z,12.27
2022-11-19T14:23:58.999Z,12.07
2022-11-19T14:27:16.433Z,12.20
2022-11-19T14:29:54.316Z,12.17
2022-11-19T14:32:32.858Z,11.30
2022-11-19T14:35:18.360Z,10.80
2022-11-19T14:37:46.290Z,11.53
2022-11-19T14:40:16.370Z,11.73
2022-11-19T14:43:48.737Z,12.10
2022-11-19T14:46:26.737Z,11.60
2022-11-19T14:48:59.065Z,11.30
2022-11-19T14:51:31.198Z,12.63
2022-11-19T14:54:02.783Z,11.80
2022-11-19T14:56:29.865Z,14.17
2022-11-19T14:58:58.092Z,11.93
2022-11-19T15:01:24.428Z,11.70
2022-11-19T15:03:53.002Z,10.07
2022-11-19T15:06:19.512Z,11.33
2022-11-19T15:08:47.527Z,10.93
2022-11-19T15:11:15.073Z,11.40
2022-11-19T15:13:41.822Z,11.07
2022-11-19T15:16:10.668Z,11.53
2022-11-19T15:19:24.523Z,10.43
2022-11-19T15:22:23.899Z,10.10
2022-11-19T15:25:19.088Z,10.47
2022-11-19T15:28:08.015Z,11.50
2022-11-19T15:31:02.357Z,10.37
2022-11-19T15:33:42.908Z,10.60
2022-11-19T15:36:28.411Z,10.10
2022-11-19T15:38:59.876Z,10.90
2022-11-19T15:41:28.920Z,11.40
2022-11-19T15:43:57.047Z,10.77
2022-11-19T15:46:30.616Z,10.73
2022-11-19T15:49:01.420Z,11.00
2022-11-19T15:51:28.295Z,10.33
2022-11-19T15:53:58.852Z,11.50
2022-11-19T15:56:25.673Z,10.67
2022-11-19T15:58:52.016Z,11.07
2022-11-19T16:01:20.082Z,10.70
2022-11-19T16:03:46.738Z,10.93
2022-11-19T16:06:16.206Z,10.87
2022-11-19T16:08:43.646Z,10.10
2022-11-19T16:11:33.209Z,10.37
2022-11-19T16:14:19.905Z,11.23
2022-11-19T16:17:04.780Z,10.40
2022-11-19T16:19:30.958Z,10.47
2022-11-19T16:22:00.186Z,11.03
2022-11-19T16:24:45.768Z,10.73
2022-11-19T16:27:15.739Z,10.70
2022-11-19T16:29:42.768Z,10.27
2022-11-19T16:32:13.628Z,10.97
2022-11-19T16:34:39.795Z,9.93
2022-11-19T16:37:05.955Z,10.70
2022-11-19T16:39:33.066Z,10.97
2022-11-19T16:42:18.302Z,10.90
2022-11-19T16:44:45.336Z,10.93
2022-11-19T16:47:19.321Z,11.17
2022-11-19T16:49:55.596Z,10.60
2022-11-19T16:52:41.753Z,10.67
2022-11-19T16:55:37.369Z,10.87
2022-11-19T16:58:13.723Z,10.47
2022-11-19T17:00:41.996Z,11.33
2022-11-19T17:03:28.748Z,10.27
2022-11-19T17:05:56.071Z,9.87
2022-11-19T17:08:24.398Z,10.57
2022-11-19T17:11:39.472Z,10.47
2022-11-19T17:14:22.859Z,10.27
2022-11-19T17:16:51.148Z,9.33
2022-11-19T17:19:25.664Z,9.80
2022-11-19T17:21:56.454Z,11.40
2022-11-19T17:24:27.707Z,10.50
2022-11-19T17:26:54.304Z,10.87
2022-11-19T17:29:23.029Z,10.33
2022-11-19T17:31:50.728Z,9.73
2022-11-19T17:34:26.430Z,9.97
2022-11-19T17:36:52.560Z,10.03
2022-11-19T17:39:23.989Z,11.53
2022-11-19T17:42:11.571Z,10.73
2022-11-19T17:44:38.812Z,10.93
2022-11-19T17:47:21.155Z,9.97
2022-11-19T17:49:49.258Z,13.13
2022-11-19T17:52:21.958Z,14.17
2022-11-19T17:54:48.140Z,12.63
2022-11-19T17:57:14.427Z,11.00
2022-11-19T17:59:40.650Z,11.60
2022-11-19T18:02:12.714Z,11.43
2022-11-19T18:04:39.162Z,11.03
2022-11-19T18:07:06.315Z,10.40
2022-11-19T18:09:35.044Z,10.77
2022-11-19T18:12:01.531Z,10.50
2022-11-19T18:14:27.791Z,10.30
2022-11-19T18:16:54.829Z,11.07
2022-11-19T18:19:25.651Z,11.30
2022-11-19T18:21:52.459Z,11.50
2022-11-19T18:24:19.960Z,11.67
2022-11-19T18:26:46.423Z,11.90
2022-11-19T18:29:12.976Z,11.63
2022-11-19T18:31:42.974Z,12.03
2022-11-19T18:34:11.542Z,11.67
2022-11-19T18:36:37.807Z,11.30
2022-11-19T18:39:04.075Z,11.77
2022-11-19T18:41:31.405Z,11.90
2022-11-19T18:44:16.040Z,11.90
2022-11-19T18:46:42.276Z,12.33
2022-11-19T18:49:08.457Z,11.57
2022-11-19T18:51:34.882Z,12.60
2022-11-19T18:54:01.121Z,12.20
2022-11-19T18:56:27.259Z,13.03
2022-11-19T18:58:54.063Z,14.47
2022-11-19T19:01:20.835Z,14.30
2022-11-19T19:03:47.165Z,15.33
2022-11-19T19:06:13.970Z,14.00
2022-11-19T19:08:40.147Z,15.27
2022-11-19T19:11:25.986Z,13.40
2022-11-19T19:13:52.272Z,12.90
2022-11-19T19:16:19.268Z,12.40
2022-11-19T19:18:45.482Z,12.40
2022-11-19T19:21:12.664Z,13.43
2022-11-19T19:23:39.154Z,12.67
2022-11-19T19:26:07.412Z,11.23
2022-11-19T19:28:33.773Z,12.60
2022-11-19T19:30:59.956Z,12.40
2022-11-19T19:33:26.948Z,11.97
2022-11-19T19:35:53.491Z,12.30
2022-11-19T19:38:19.923Z,12.63
2022-11-19T19:40:46.417Z,13.90
2022-11-19T19:43:12.799Z,13.90
2022-11-19T19:45:39.258Z,13.47
2022-11-19T19:48:06.465Z,12.90
2022-11-19T19:50:33.470Z,13.67
2022-11-19T19:53:00.022Z,12.87
2022-11-19T19:55:26.366Z,13.10
2022-11-19T19:57:52.486Z,13.23
2022-11-19T20:00:19.028Z,12.93
2022-11-19T20:02:48.023Z,13.23
2022-11-19T20:05:14.366Z,13.17
2022-11-19T20:07:41.254Z,13.27
2022-11-19T20:10:08.513Z,14.27
2022-11-19T20:12:49.658Z,13.37
2022-11-19T20:15:16.041Z,12.93
2022-11-19T20:17:42.341Z,13.83
2022-11-19T20:20:09.839Z,13.57
2022-11-19T20:22:36.307Z,13.33
2022-11-19T20:25:03.428Z,13.20
2022-11-19T20:27:29.587Z,13.47
2022-11-19T20:29:55.763Z,13.00
2022-11-19T20:32:21.898Z,12.10
2022-11-19T20:34:48.043Z,13.23
2022-11-19T20:37:14.220Z,13.03
2022-11-19T20:39:40.359Z,13.73
2022-11-19T20:42:26.790Z,11.50
2022-11-19T20:44:55.517Z,13.30
2022-11-19T20:47:21.741Z,13.23
2022-11-19T20:49:47.926Z,11.37
2022-11-19T20:52:17.097Z,11.77
2022-11-19T20:54:43.866Z,12.17
2022-11-19T20:57:10.654Z,11.10
2022-11-19T20:59:36.844Z,12.13
2022-11-19T21:02:03.113Z,11.23
2022-11-19T21:04:35.410Z,11.87
2022-11-19T21:07:01.715Z,11.80
2022-11-19T21:09:27.940Z,12.43
2022-11-19T21:11:54.251Z,12.10
2022-11-19T21:14:21.405Z,11.30
2022-11-19T21:16:47.684Z,12.60
2022-11-19T21:19:14.752Z,11.50
2022-11-19T21:21:41.103Z,11.27
2022-11-19T21:24:07.760Z,11.70
2022-11-19T21:26:34.050Z,12.63
2022-11-19T21:29:00.415Z,12.67
2022-11-19T21:31:37.575Z,12.97
2022-11-19T21:34:04.378Z,13.73
2022-11-19T21:36:30.588Z,12.00
2022-11-19T21:38:56.970Z,12.10
2022-11-19T21:41:23.109Z,11.03
2022-11-19T21:43:49.477Z,11.23
2022-11-19T21:46:15.599Z,10.93
2022-11-19T21:48:42.382Z,10.63
2022-11-19T21:51:08.516Z,10.63
2022-11-19T21:53:35.291Z,10.83
2022-11-19T21:56:01.698Z,10.80
2022-11-19T21:58:27.853Z,10.37
2022-11-19T22:00:56.811Z,10.90
2022-11-19T22:03:22.967Z,9.57
2022-11-19T22:05:58.228Z,9.97
2022-11-19T22:08:24.382Z,10.10
2022-11-19T22:10:50.511Z,10.70
2022-11-19T22:13:16.632Z,10.00
2022-11-19T22:15:42.770Z,10.13
2022-11-19T22:18:08.931Z,10.73
2022-11-19T22:20:35.055Z,10.53
2022-11-19T22:23:01.808Z,10.37
2022-11-19T22:25:27.926Z,10.70
2022-11-19T22:27:54.091Z,10.90
2022-11-19T22:30:20.243Z,10.77
2022-11-19T22:32:46.405Z,9.93
2022-11-19T22:35:12.526Z,9.63
2022-11-19T22:37:38.717Z,10.50
2022-11-19T22:40:06.906Z,10.37
2022-11-19T22:42:33.017Z,10.70
2022-11-19T22:44:59.161Z,10.67
2022-11-19T22:47:25.356Z,11.10
2022-11-19T22:49:51.491Z,11.87
2022-11-19T22:52:17.684Z,11.23
2022-11-19T22:54:43.893Z,12.10
2022-11-19T22:57:10.836Z,11.43
2022-11-19T22:59:36.982Z,11.77
2022-11-19T23:02:03.126Z,11.63
2022-11-19T23:04:29.315Z,10.80
2022-11-19T23:06:55.655Z,11.37
2022-11-19T23:09:22.043Z,10.90
2022-11-19T23:12:06.849Z,10.53
2022-11-19T23:14:33.596Z,10.27
2022-11-19T23:17:00.262Z,12.10
2022-11-19T23:19:26.378Z,11.60
2022-11-19T23:21:52.507Z,12.77
2022-11-19T23:24:18.634Z,11.97
2022-11-19T23:26:44.757Z,12.00
2022-11-19T23:29:10.879Z,12.60
2022-11-19T23:31:38.681Z,12.40
2022-11-19T23:34:05.496Z,12.77
2022-11-19T23:36:33.113Z,12.37
2022-11-19T23:38:59.563Z,12.97
2022-11-19T23:41:26.446Z,13.23
2022-11-19T23:43:53.883Z,12.50
2022-11-19T23:46:21.390Z,13.67
2022-11-19T23:48:49.022Z,13.03
2022-11-19T23:51:16.291Z,12.27
2022-11-19T23:53:42.775Z,12.77
2022-11-19T23:56:09.810Z,11.83
2022-11-19T23:58:36.774Z,12.73
